sensor_id;sensor_type;location;lat;lon;timestamp;pressure;altitude;pressure_sealevel;temperature;humidity
1736;BME280;865;53.672;10.250;2024-01-10T00:02:21;103122.75;;;-9.03;100.00
1736;BME280;865;53.672;10.250;2024-01-10T00:04:48;103123.31;;;-9.14;100.00
1736;BME280;865;53.672;10.250;2024-01-10T00:07:14;103121.25;;;-9.09;100.00
1736;BME280;865;53.672;10.250;2024-01-10T00:09:41;103107.88;;;-9.00;100.00
1736;BME280;865;53.672;10.250;2024-01-10T00:12:07;103098.34;;;-9.02;100.00
1736;BME280;865;53.672;10.250;2024-01-10T00:14:34;103098.22;;;-8.95;100.00
1736;BME280;865;53.672;10.250;2024-01-10T00:17:00;103099.41;;;-8.83;100.00
1736;BME280;865;53.672;10.250;2024-01-10T00:19:26;103095.53;;;-8.88;100.00
1736;BME280;865;53.672;10.250;2024-01-10T00:21:53;103097.75;;;-8.91;100.00
1736;BME280;865;53.672;10.250;2024-01-10T00:24:19;103095.81;;;-8.85;100.00
1736;BME280;865;53.672;10.250;2024-01-10T00:26:46;103095.81;;;-8.85;100.00
1736;BME280;865;53.672;10.250;2024-01-10T00:29:12;103105.94;;;-8.85;100.00
1736;BME280;865;53.672;10.250;2024-01-10T00:31:40;103102.06;;;-8.73;100.00
1736;BME280;865;53.672;10.250;2024-01-10T00:34:06;103100.56;;;-8.62;100.00
1736;BME280;865;53.672;10.250;2024-01-10T00:36:33;103102.63;;;-8.58;100.00
1736;BME280;865;53.672;10.250;2024-01-10T00:38:59;103089.50;;;-8.54;100.00
1736;BME280;865;53.672;10.250;2024-01-10T00:41:25;103093.47;;;-8.30;100.00
1736;BME280;865;53.672;10.250;2024-01-10T00:43:52;103080.38;;;-8.34;100.00
1736;BME280;865;53.672;10.250;2024-01-10T00:46:18;103078.72;;;-8.34;100.00
1736;BME280;865;53.672;10.250;2024-01-10T00:48:44;103087.38;;;-8.32;100.00
1736;BME280;865;53.672;10.250;2024-01-10T00:51:11;103091.66;;;-8.22;100.00
1736;BME280;865;53.672;10.250;2024-01-10T00:53:37;103086.72;;;-8.12;100.00
1736;BME280;865;53.672;10.250;2024-01-10T00:56:08;103096.88;;;-8.20;100.00
1736;BME280;865;53.672;10.250;2024-01-10T00:58:35;103092.06;;;-8.09;100.00
1736;BME280;865;53.672;10.250;2024-01-10T01:01:01;103097.97;;;-7.99;100.00
1736;BME280;865;53.672;10.250;2024-01-10T01:03:28;103100.69;;;-8.15;100.00
1736;BME280;865;53.672;10.250;2024-01-10T01:05:55;103102.00;;;-8.02;100.00
1736;BME280;865;53.672;10.250;2024-01-10T01:08:21;103099.47;;;-8.02;100.00
1736;BME280;865;53.672;10.250;2024-01-10T01:10:48;103103.69;;;-7.83;100.00
1736;BME280;865;53.672;10.250;2024-01-10T01:13:14;103094.00;;;-7.78;100.00
1736;BME280;865;53.672;10.250;2024-01-10T01:15:41;103101.03;;;-7.85;100.00
1736;BME280;865;53.672;10.250;2024-01-10T01:18:07;103096.81;;;-7.75;100.00
1736;BME280;865;53.672;10.250;2024-01-10T01:20:36;103085.94;;;-7.74;100.00
1736;BME280;865;53.672;10.250;2024-01-10T01:23:02;103095.59;;;-7.70;100.00
1736;BME280;865;53.672;10.250;2024-01-10T01:25:29;103096.47;;;-7.61;100.00
1736;BME280;865;53.672;10.250;2024-01-10T01:27:56;103090.25;;;-7.46;100.00
1736;BME280;865;53.672;10.250;2024-01-10T01:30:22;103093.88;;;-7.52;100.00
1736;BME280;865;53.672;10.250;2024-01-10T01:32:49;103088.09;;;-7.60;100.00
1736;BME280;865;53.672;10.250;2024-01-10T01:35:15;103089.03;;;-7.68;100.00
1736;BME280;865;53.672;10.250;2024-01-10T01:37:48;103087.59;;;-7.56;100.00
1736;BME280;865;53.672;10.250;2024-01-10T01:40:15;103091.19;;;-7.54;100.00
1736;BME280;865;53.672;10.250;2024-01-10T01:42:44;103084.56;;;-7.43;100.00
1736;BME280;865;53.672;10.250;2024-01-10T01:45:11;103084.91;;;-7.49;100.00
1736;BME280;865;53.672;10.250;2024-01-10T01:47:38;103085.63;;;-7.50;100.00
1736;BME280;865;53.672;10.250;2024-01-10T01:50:06;103083.09;;;-7.50;100.00
1736;BME280;865;53.672;10.250;2024-01-10T01:52:33;103084.84;;;-7.40;100.00
1736;BME280;865;53.672;10.250;2024-01-10T01:55:01;103076.75;;;-7.36;100.00
1736;BME280;865;53.672;10.250;2024-01-10T01:57:28;103083.03;;;-7.41;100.00
1736;BME280;865;53.672;10.250;2024-01-10T01:59:54;103075.88;;;-7.37;100.00
1736;BME280;865;53.672;10.250;2024-01-10T02:02:21;103082.66;;;-7.46;100.00
1736;BME280;865;53.672;10.250;2024-01-10T02:04:48;103083.66;;;-7.44;100.00
1736;BME280;865;53.672;10.250;2024-01-10T02:07:14;103084.56;;;-7.43;100.00
1736;BME280;865;53.672;10.250;2024-01-10T02:09:41;103079.22;;;-7.27;100.00
1736;BME280;865;53.672;10.250;2024-01-10T02:12:07;103073.06;;;-7.21;100.00
1736;BME280;865;53.672;10.250;2024-01-10T02:14:34;103071.22;;;-7.13;100.00
1736;BME280;865;53.672;10.250;2024-01-10T02:17:00;103071.28;;;-7.03;100.00
1736;BME280;865;53.672;10.250;2024-01-10T02:19:27;103074.97;;;-7.18;100.00
1736;BME280;865;53.672;10.250;2024-01-10T02:21:55;103076.41;;;-7.12;100.00
1736;BME280;865;53.672;10.250;2024-01-10T02:24:22;103072.16;;;-7.02;100.00
1736;BME280;865;53.672;10.250;2024-01-10T02:26:48;103086.09;;;-7.07;100.00
1736;BME280;865;53.672;10.250;2024-01-10T02:29:16;103071.81;;;-6.97;100.00
1736;BME280;865;53.672;10.250;2024-01-10T02:31:42;103079.69;;;-6.94;100.00
1736;BME280;865;53.672;10.250;2024-01-10T02:34:09;103077.69;;;-6.88;100.00
1736;BME280;865;53.672;10.250;2024-01-10T02:36:36;103070.34;;;-6.84;100.00
1736;BME280;865;53.672;10.250;2024-01-10T02:39:02;103073.50;;;-6.68;100.00
1736;BME280;865;53.672;10.250;2024-01-10T02:41:29;103070.19;;;-6.67;100.00
1736;BME280;865;53.672;10.250;2024-01-10T02:43:55;103074.94;;;-6.61;100.00
1736;BME280;865;53.672;10.250;2024-01-10T02:46:25;103070.00;;;-6.60;100.00
1736;BME280;865;53.672;10.250;2024-01-10T02:48:54;103069.00;;;-6.52;100.00
1736;BME280;865;53.672;10.250;2024-01-10T02:51:22;103067.47;;;-6.60;100.00
1736;BME280;865;53.672;10.250;2024-01-10T02:53:48;103070.13;;;-6.58;100.00
1736;BME280;865;53.672;10.250;2024-01-10T02:56:15;103057.84;;;-6.54;100.00
1736;BME280;865;53.672;10.250;2024-01-10T02:58:42;103064.41;;;-6.56;100.00
1736;BME280;865;53.672;10.250;2024-01-10T03:01:08;103065.47;;;-6.54;100.00
1736;BME280;865;53.672;10.250;2024-01-10T03:03:35;103054.81;;;-6.50;100.00
1736;BME280;865;53.672;10.250;2024-01-10T03:06:02;103063.09;;;-6.42;100.00
1736;BME280;865;53.672;10.250;2024-01-10T03:08:28;103051.03;;;-6.34;100.00
1736;BME280;865;53.672;10.250;2024-01-10T03:10:55;103056.25;;;-6.33;100.00
1736;BME280;865;53.672;10.250;2024-01-10T03:13:21;103059.31;;;-6.27;100.00
1736;BME280;865;53.672;10.250;2024-01-10T03:15:48;103064.94;;;-6.21;100.00
1736;BME280;865;53.672;10.250;2024-01-10T03:18:14;103064.19;;;-6.09;100.00
1736;BME280;865;53.672;10.250;2024-01-10T03:20:41;103058.22;;;-6.10;100.00
1736;BME280;865;53.672;10.250;2024-01-10T03:23:07;103060.25;;;-6.06;100.00
1736;BME280;865;53.672;10.250;2024-01-10T03:25:34;103061.41;;;-6.02;100.00
1736;BME280;865;53.672;10.250;2024-01-10T03:28:00;103057.47;;;-5.99;100.00
1736;BME280;865;53.672;10.250;2024-01-10T03:30:27;103059.66;;;-5.93;100.00
1736;BME280;865;53.672;10.250;2024-01-10T03:32:53;103056.84;;;-5.96;100.00
1736;BME280;865;53.672;10.250;2024-01-10T03:35:20;103054.41;;;-5.84;100.00
1736;BME280;865;53.672;10.250;2024-01-10T03:37:46;103055.56;;;-5.81;100.00
1736;BME280;865;53.672;10.250;2024-01-10T03:40:13;103056.84;;;-5.76;100.00
1736;BME280;865;53.672;10.250;2024-01-10T03:42:39;103052.91;;;-5.72;100.00
1736;BME280;865;53.672;10.250;2024-01-10T03:45:06;103051.63;;;-5.67;100.00
1736;BME280;865;53.672;10.250;2024-01-10T03:47:32;103048.81;;;-5.60;100.00
1736;BME280;865;53.672;10.250;2024-01-10T03:49:59;103046.16;;;-5.51;100.00
1736;BME280;865;53.672;10.250;2024-01-10T03:52:26;103046.81;;;-5.43;100.00
1736;BME280;865;53.672;10.250;2024-01-10T03:54:52;103045.53;;;-5.38;100.00
1736;BME280;865;53.672;10.250;2024-01-10T03:57:18;103042.47;;;-5.34;100.00
1736;BME280;865;53.672;10.250;2024-01-10T03:59:45;103037.25;;;-5.25;100.00
1736;BME280;865;53.672;10.250;2024-01-10T04:02:11;103040.53;;;-5.27;100.00
1736;BME280;865;53.672;10.250;2024-01-10T04:04:38;103038.38;;;-5.22;100.00
1736;BME280;865;53.672;10.250;2024-01-10T04:07:06;103037.34;;;-5.24;100.00
1736;BME280;865;53.672;10.250;2024-01-10T04:09:32;103029.97;;;-5.21;100.00
1736;BME280;865;53.672;10.250;2024-01-10T04:11:59;103027.81;;;-5.27;100.00
1736;BME280;865;53.672;10.250;2024-01-10T04:14:25;103016.47;;;-5.10;100.00
1736;BME280;865;53.672;10.250;2024-01-10T04:16:53;103015.19;;;-5.05;100.00
1736;BME280;865;53.672;10.250;2024-01-10T04:19:20;103016.97;;;-5.04;100.00
1736;BME280;865;53.672;10.250;2024-01-10T04:21:46;103019.13;;;-4.98;100.00
1736;BME280;865;53.672;10.250;2024-01-10T04:24:13;103010.22;;;-5.03;100.00
1736;BME280;865;53.672;10.250;2024-01-10T04:26:39;103015.53;;;-5.00;100.00
1736;BME280;865;53.672;10.250;2024-01-10T04:29:06;103010.59;;;-4.98;100.00
1736;BME280;865;53.672;10.250;2024-01-10T04:31:33;103007.50;;;-4.94;100.00
1736;BME280;865;53.672;10.250;2024-01-10T04:33:59;103005.06;;;-4.83;100.00
1736;BME280;865;53.672;10.250;2024-01-10T04:36:26;103009.25;;;-4.83;100.00
1736;BME280;865;53.672;10.250;2024-01-10T04:38:52;103000.09;;;-4.81;100.00
1736;BME280;865;53.672;10.250;2024-01-10T04:41:19;103006.97;;;-4.80;100.00
1736;BME280;865;53.672;10.250;2024-01-10T04:43:46;103007.97;;;-4.78;100.00
1736;BME280;865;53.672;10.250;2024-01-10T04:46:12;103000.94;;;-4.70;100.00
1736;BME280;865;53.672;10.250;2024-01-10T04:48:38;103005.19;;;-4.81;100.00
1736;BME280;865;53.672;10.250;2024-01-10T04:51:05;103009.09;;;-4.74;100.00
1736;BME280;865;53.672;10.250;2024-01-10T04:53:31;103000.94;;;-4.70;100.00
1736;BME280;865;53.672;10.250;2024-01-10T04:55:58;102994.44;;;-4.67;100.00
1736;BME280;865;53.672;10.250;2024-01-10T04:58:24;102993.91;;;-4.63;100.00
1736;BME280;865;53.672;10.250;2024-01-10T05:00:52;102999.09;;;-4.61;100.00
1736;BME280;865;53.672;10.250;2024-01-10T05:03:18;102992.63;;;-4.57;100.00
1736;BME280;865;53.672;10.250;2024-01-10T05:05:45;102995.91;;;-4.59;100.00
1736;BME280;865;53.672;10.250;2024-01-10T05:08:12;102995.16;;;-4.57;100.00
1736;BME280;865;53.672;10.250;2024-01-10T05:10:38;102998.41;;;-4.48;100.00
1736;BME280;865;53.672;10.250;2024-01-10T05:13:05;102993.59;;;-4.55;100.00
1736;BME280;865;53.672;10.250;2024-01-10T05:15:31;102987.28;;;-4.61;100.00
1736;BME280;865;53.672;10.250;2024-01-10T05:17:58;102988.41;;;-4.57;100.00
1736;BME280;865;53.672;10.250;2024-01-10T05:20:24;102987.28;;;-4.61;100.00
1736;BME280;865;53.672;10.250;2024-01-10T05:22:50;102987.22;;;-4.50;100.00
1736;BME280;865;53.672;10.250;2024-01-10T05:25:17;102991.28;;;-4.52;100.00
1736;BME280;865;53.672;10.250;2024-01-10T05:27:44;102994.22;;;-4.48;100.00
1736;BME280;865;53.672;10.250;2024-01-10T05:30:11;102996.13;;;-4.45;100.00
1736;BME280;865;53.672;10.250;2024-01-10T05:32:39;102991.34;;;-4.41;100.00
1736;BME280;865;53.672;10.250;2024-01-10T05:35:05;102989.72;;;-4.40;100.00
1736;BME280;865;53.672;10.250;2024-01-10T05:37:32;102992.31;;;-4.50;100.00
1736;BME280;865;53.672;10.250;2024-01-10T05:39:59;102992.28;;;-4.40;100.00
1736;BME280;865;53.672;10.250;2024-01-10T05:42:25;102989.19;;;-4.36;100.00
1736;BME280;865;53.672;10.250;2024-01-10T05:44:52;102996.91;;;-4.35;100.00
1736;BME280;865;53.672;10.250;2024-01-10T05:47:19;102998.72;;;-4.33;100.00
1736;BME280;865;53.672;10.250;2024-01-10T05:49:45;103002.03;;;-4.35;100.00
1736;BME280;865;53.672;10.250;2024-01-10T05:52:12;102998.34;;;-4.38;100.00
1736;BME280;865;53.672;10.250;2024-01-10T05:54:39;102999.06;;;-4.51;100.00
1736;BME280;865;53.672;10.250;2024-01-10T05:57:05;102988.47;;;-4.45;100.00
1736;BME280;865;53.672;10.250;2024-01-10T05:59:32;102980.69;;;-4.47;100.00
1736;BME280;865;53.672;10.250;2024-01-10T06:01:59;102985.28;;;-4.43;100.00
1736;BME280;865;53.672;10.250;2024-01-10T06:04:26;102980.94;;;-4.44;100.00
1736;BME280;865;53.672;10.250;2024-01-10T06:06:54;102982.91;;;-4.51;100.00
1736;BME280;865;53.672;10.250;2024-01-10T06:09:21;102981.25;;;-4.51;100.00
1736;BME280;865;53.672;10.250;2024-01-10T06:11:48;102977.75;;;-4.41;100.00
1736;BME280;865;53.672;10.250;2024-01-10T06:14:15;102980.41;;;-4.40;100.00
1736;BME280;865;53.672;10.250;2024-01-10T06:16:41;102981.31;;;-4.39;100.00
1736;BME280;865;53.672;10.250;2024-01-10T06:19:08;102969.81;;;-4.34;100.00
1736;BME280;865;53.672;10.250;2024-01-10T06:21:37;102979.78;;;-4.37;100.00
1736;BME280;865;53.672;10.250;2024-01-10T06:24:04;102975.44;;;-4.38;100.00
1736;BME280;865;53.672;10.250;2024-01-10T06:26:30;102972.78;;;-4.40;100.00
1736;BME280;865;53.672;10.250;2024-01-10T06:28:57;102973.13;;;-4.35;100.00
1736;BME280;865;53.672;10.250;2024-01-10T06:31:24;102970.69;;;-4.33;100.00
1736;BME280;865;53.672;10.250;2024-01-10T06:33:50;102971.59;;;-4.33;100.00
1736;BME280;865;53.672;10.250;2024-01-10T06:36:17;102968.38;;;-4.30;100.00
1736;BME280;865;53.672;10.250;2024-01-10T06:38:43;102967.50;;;-4.31;100.00
1736;BME280;865;53.672;10.250;2024-01-10T06:41:11;102972.84;;;-4.28;100.00
1736;BME280;865;53.672;10.250;2024-01-10T06:43:40;102973.06;;;-4.25;100.00
1736;BME280;865;53.672;10.250;2024-01-10T06:46:07;102968.53;;;-4.17;100.00
1736;BME280;865;53.672;10.250;2024-01-10T06:48:33;102967.78;;;-4.16;100.00
1736;BME280;865;53.672;10.250;2024-01-10T06:51:00;102970.56;;;-4.13;100.00
1736;BME280;865;53.672;10.250;2024-01-10T06:53:26;102976.59;;;-4.23;100.00
1736;BME280;865;53.672;10.250;2024-01-10T06:55:53;102968.53;;;-4.17;100.00
1736;BME280;865;53.672;10.250;2024-01-10T06:58:19;102970.19;;;-4.18;100.00
1736;BME280;865;53.672;10.250;2024-01-10T07:00:46;102981.03;;;-4.20;100.00
1736;BME280;865;53.672;10.250;2024-01-10T07:03:12;102967.66;;;-4.18;100.00
1736;BME280;865;53.672;10.250;2024-01-10T07:05:39;102964.22;;;-4.18;100.00
1736;BME280;865;53.672;10.250;2024-01-10T07:08:06;102969.56;;;-4.15;100.00
1736;BME280;865;53.672;10.250;2024-01-10T07:10:32;102970.34;;;-4.16;100.00
1736;BME280;865;53.672;10.250;2024-01-10T07:12:59;102967.66;;;-4.18;100.00
1736;BME280;865;53.672;10.250;2024-01-10T07:15:25;102974.19;;;-4.21;100.00
1736;BME280;865;53.672;10.250;2024-01-10T07:17:52;102968.66;;;-4.16;100.00
1736;BME280;865;53.672;10.250;2024-01-10T07:20:18;102969.78;;;-4.12;100.00
1736;BME280;865;53.672;10.250;2024-01-10T07:22:45;102970.34;;;-4.16;100.00
1736;BME280;865;53.672;10.250;2024-01-10T07:25:11;102977.28;;;-4.14;100.00
1736;BME280;865;53.672;10.250;2024-01-10T07:27:40;102973.75;;;-4.16;100.00
1736;BME280;865;53.672;10.250;2024-01-10T07:30:08;102970.91;;;-4.08;100.00
1736;BME280;865;53.672;10.250;2024-01-10T07:32:41;102969.97;;;-4.21;100.00
1736;BME280;865;53.672;10.250;2024-01-10T07:35:08;102967.97;;;-4.25;100.00
1736;BME280;865;53.672;10.250;2024-01-10T07:37:39;102961.03;;;-4.16;100.00
1736;BME280;865;53.672;10.250;2024-01-10T07:40:07;102963.81;;;-4.13;100.00
1736;BME280;865;53.672;10.250;2024-01-10T07:42:35;102961.34;;;-4.11;100.00
1736;BME280;865;53.672;10.250;2024-01-10T07:45:02;102962.13;;;-4.12;100.00
1736;BME280;865;53.672;10.250;2024-01-10T07:47:33;102969.19;;;-4.20;100.00
1736;BME280;865;53.672;10.250;2024-01-10T07:50:00;102970.19;;;-4.18;100.00
1736;BME280;865;53.672;10.250;2024-01-10T07:52:27;102967.09;;;-4.14;100.00
1736;BME280;865;53.672;10.250;2024-01-10T07:54:54;102979.56;;;-4.06;100.00
1736;BME280;865;53.672;10.250;2024-01-10T07:57:20;102977.00;;;-4.06;100.00
1736;BME280;865;53.672;10.250;2024-01-10T07:59:47;102975.56;;;-4.03;100.00
1736;BME280;865;53.672;10.250;2024-01-10T08:02:13;102976.44;;;-4.02;100.00
1736;BME280;865;53.672;10.250;2024-01-10T08:04:40;102977.94;;;-3.94;100.00
1736;BME280;865;53.672;10.250;2024-01-10T08:07:07;102979.59;;;-3.95;100.00
1736;BME280;865;53.672;10.250;2024-01-10T08:09:34;102979.47;;;-3.96;100.00
1736;BME280;865;53.672;10.250;2024-01-10T08:12:01;102985.91;;;-4.01;100.00
1736;BME280;865;53.672;10.250;2024-01-10T08:14:27;102983.56;;;-3.98;100.00
1736;BME280;865;53.672;10.250;2024-01-10T08:16:54;102981.88;;;-4.09;100.00
1736;BME280;865;53.672;10.250;2024-01-10T08:19:21;102976.53;;;-4.13;100.00
1736;BME280;865;53.672;10.250;2024-01-10T08:21:47;102975.34;;;-4.06;100.00
1736;BME280;865;53.672;10.250;2024-01-10T08:24:13;102986.50;;;-4.16;100.00
1736;BME280;865;53.672;10.250;2024-01-10T08:26:40;102982.53;;;-4.12;100.00
1736;BME280;865;53.672;10.250;2024-01-10T08:29:07;102989.38;;;-4.11;100.00
1736;BME280;865;53.672;10.250;2024-01-10T08:31:33;102987.97;;;-4.07;100.00
1736;BME280;865;53.672;10.250;2024-01-10T08:34:00;102986.56;;;-4.26;100.00
1736;BME280;865;53.672;10.250;2024-01-10T08:36:27;102990.03;;;-4.25;100.00
1736;BME280;865;53.672;10.250;2024-01-10T08:38:54;102994.66;;;-4.20;100.00
1736;BME280;865;53.672;10.250;2024-01-10T08:41:20;102999.25;;;-4.16;100.00
1736;BME280;865;53.672;10.250;2024-01-10T08:43:47;103003.16;;;-4.09;100.00
1736;BME280;865;53.672;10.250;2024-01-10T08:46:13;103006.66;;;-4.19;100.00
1736;BME280;865;53.672;10.250;2024-01-10T08:48:41;103003.41;;;-4.28;100.00
1736;BME280;865;53.672;10.250;2024-01-10T08:51:08;103000.91;;;-4.38;100.00
1736;BME280;865;53.672;10.250;2024-01-10T08:53:36;102997.06;;;-4.33;100.00
1736;BME280;865;53.672;10.250;2024-01-10T08:56:03;102996.91;;;-4.35;100.00
1736;BME280;865;53.672;10.250;2024-01-10T08:58:29;103000.50;;;-4.32;100.00
1736;BME280;865;53.672;10.250;2024-01-10T09:00:56;102998.06;;;-4.31;100.00
1736;BME280;865;53.672;10.250;2024-01-10T09:03:22;102986.72;;;-4.35;100.00
1736;BME280;865;53.672;10.250;2024-01-10T09:05:49;102996.81;;;-4.36;100.00
1736;BME280;865;53.672;10.250;2024-01-10T09:08:34;102996.69;;;-4.60;100.00
1736;BME280;865;53.672;10.250;2024-01-10T09:11:00;102993.78;;;-4.64;100.00
1736;BME280;865;53.672;10.250;2024-01-10T09:13:27;102992.25;;;-4.62;100.00
1736;BME280;865;53.672;10.250;2024-01-10T09:15:53;102995.91;;;-4.59;100.00
1736;BME280;865;53.672;10.250;2024-01-10T09:18:20;102993.09;;;-4.51;100.00
1736;BME280;865;53.672;10.250;2024-01-10T09:20:46;102993.59;;;-4.55;100.00
1736;BME280;865;53.672;10.250;2024-01-10T09:23:14;103001.25;;;-4.55;100.00
1736;BME280;865;53.672;10.250;2024-01-10T09:25:41;102985.69;;;-4.48;100.00
1736;BME280;865;53.672;10.250;2024-01-10T09:28:08;102998.00;;;-4.43;100.00
1736;BME280;865;53.672;10.250;2024-01-10T09:30:34;102989.91;;;-4.49;100.00
1736;BME280;865;53.672;10.250;2024-01-10T09:33:03;102995.63;;;-4.51;100.00
1736;BME280;865;53.672;10.250;2024-01-10T09:35:30;102993.09;;;-4.51;100.00
1736;BME280;865;53.672;10.250;2024-01-10T09:37:56;102994.69;;;-4.42;100.00
1736;BME280;865;53.672;10.250;2024-01-10T09:40:23;102999.38;;;-4.58;100.00
1736;BME280;865;53.672;10.250;2024-01-10T09:42:54;102994.16;;;-4.60;100.00
1736;BME280;865;53.672;10.250;2024-01-10T09:45:21;103001.00;;;-4.59;100.00
1736;BME280;865;53.672;10.250;2024-01-10T09:47:52;103007.81;;;-4.47;100.00
1736;BME280;865;53.672;10.250;2024-01-10T09:50:20;103004.50;;;-4.46;100.00
1736;BME280;865;53.672;10.250;2024-01-10T09:52:51;102987.44;;;-4.47;100.00
1736;BME280;865;53.672;10.250;2024-01-10T09:55:22;102990.88;;;-4.47;100.00
1736;BME280;865;53.672;10.250;2024-01-10T09:57:52;102988.34;;;-4.69;100.00
1736;BME280;865;53.672;10.250;2024-01-10T10:00:18;102994.31;;;-4.68;100.00
1736;BME280;865;53.672;10.250;2024-01-10T10:02:46;102992.38;;;-4.61;100.00
1736;BME280;865;53.672;10.250;2024-01-10T10:05:17;102994.63;;;-4.53;100.00
1736;BME280;865;53.672;10.250;2024-01-10T10:07:48;102995.91;;;-4.59;100.00
1736;BME280;865;53.672;10.250;2024-01-10T10:10:16;102990.41;;;-4.53;100.00
1736;BME280;865;53.672;10.250;2024-01-10T10:12:43;102993.09;;;-4.51;100.00
1736;BME280;865;53.672;10.250;2024-01-10T10:15:15;102995.97;;;-4.47;100.00
1736;BME280;865;53.672;10.250;2024-01-10T10:17:46;102995.34;;;-4.44;100.00
1736;BME280;865;53.672;10.250;2024-01-10T10:20:26;102991.50;;;-4.39;100.00
1736;BME280;865;53.672;10.250;2024-01-10T10:23:00;102991.59;;;-4.38;100.00
1736;BME280;865;53.672;10.250;2024-01-10T10:25:34;102990.13;;;-4.24;100.00
1736;BME280;865;53.672;10.250;2024-01-10T10:28:03;102993.69;;;-4.22;100.00
1736;BME280;865;53.672;10.250;2024-01-10T10:30:33;103000.22;;;-4.14;100.00
1736;BME280;865;53.672;10.250;2024-01-10T10:33:04;103004.81;;;-4.09;100.00
1736;BME280;865;53.672;10.250;2024-01-10T10:35:33;103001.72;;;-4.05;100.00
1736;BME280;865;53.672;10.250;2024-01-10T10:38:07;103010.56;;;-4.12;100.00
1736;BME280;865;53.672;10.250;2024-01-10T10:40:36;103008.56;;;-4.16;100.00
1736;BME280;865;53.672;10.250;2024-01-10T10:43:03;103006.56;;;-4.08;100.00
1736;BME280;865;53.672;10.250;2024-01-10T10:45:31;103011.56;;;-4.10;100.00
1736;BME280;865;53.672;10.250;2024-01-10T10:48:00;103018.19;;;-4.12;100.00
1736;BME280;865;53.672;10.250;2024-01-10T10:50:28;103022.50;;;-4.11;100.00
1736;BME280;865;53.672;10.250;2024-01-10T10:53:00;103027.50;;;-4.13;100.00
1736;BME280;865;53.672;10.250;2024-01-10T10:55:29;103022.88;;;-4.06;100.00
1736;BME280;865;53.672;10.250;2024-01-10T10:57:57;103016.81;;;-3.97;100.00
1736;BME280;865;53.672;10.250;2024-01-10T11:00:34;103017.22;;;-4.02;100.00
1736;BME280;865;53.672;10.250;2024-01-10T11:03:03;103017.59;;;-3.98;100.00
1736;BME280;865;53.672;10.250;2024-01-10T11:05:31;103008.66;;;-3.93;100.00
1736;BME280;865;53.672;10.250;2024-01-10T11:07:58;103004.34;;;-3.82;100.00
1736;BME280;865;53.672;10.250;2024-01-10T11:10:30;103002.25;;;-3.76;100.00
1736;BME280;865;53.672;10.250;2024-01-10T11:24:31;102997.16;;;-3.76;100.00
1736;BME280;865;53.672;10.250;2024-01-10T11:27:11;102994.50;;;-3.77;100.00
1736;BME280;865;53.672;10.250;2024-01-10T11:29:39;102990.28;;;-3.77;100.00
1736;BME280;865;53.672;10.250;2024-01-10T11:32:16;102988.44;;;-3.56;100.00
1736;BME280;865;53.672;10.250;2024-01-10T11:34:59;102982.31;;;-3.58;100.00
1736;BME280;865;53.672;10.250;2024-01-10T11:37:39;102986.44;;;-3.60;100.00
1736;BME280;865;53.672;10.250;2024-01-10T11:40:09;102998.50;;;-3.57;100.00
1736;BME280;865;53.672;10.250;2024-01-10T11:42:42;103000.28;;;-3.68;100.00
1736;BME280;865;53.672;10.250;2024-01-10T11:45:11;102994.31;;;-3.69;100.00
1736;BME280;865;53.672;10.250;2024-01-10T11:47:42;102988.31;;;-3.57;100.00
1736;BME280;865;53.672;10.250;2024-01-10T11:50:18;102991.44;;;-3.50;100.00
1736;BME280;865;53.672;10.250;2024-01-10T11:52:46;102985.78;;;-3.34;100.00
1736;BME280;865;53.672;10.250;2024-01-10T11:55:51;102982.03;;;-3.39;100.00
1736;BME280;865;53.672;10.250;2024-01-10T11:58:23;102981.69;;;-3.44;100.00
1736;BME280;865;53.672;10.250;2024-01-10T12:00:50;102977.81;;;-3.38;100.00
1736;BME280;865;53.672;10.250;2024-01-10T12:03:17;102975.94;;;-3.41;100.00
1736;BME280;865;53.672;10.250;2024-01-10T12:05:45;102975.06;;;-3.30;100.00
1736;BME280;865;53.672;10.250;2024-01-10T12:08:12;102968.16;;;-3.31;100.00
1736;BME280;865;53.672;10.250;2024-01-10T12:10:38;102967.03;;;-3.23;100.00
1736;BME280;865;53.672;10.250;2024-01-10T12:13:05;102958.06;;;-3.17;100.00
1736;BME280;865;53.672;10.250;2024-01-10T12:15:32;102951.28;;;-3.05;100.00
1736;BME280;865;53.672;10.250;2024-01-10T12:17:58;102952.59;;;-2.99;100.00
1736;BME280;865;53.672;10.250;2024-01-10T12:20:26;102958.81;;;-3.07;100.00
1736;BME280;865;53.672;10.250;2024-01-10T12:22:52;102946.28;;;-3.04;100.00
1736;BME280;865;53.672;10.250;2024-01-10T12:25:19;102949.97;;;-3.12;100.00
1736;BME280;865;53.672;10.250;2024-01-10T12:27:46;102951.94;;;-3.08;100.00
1736;BME280;865;53.672;10.250;2024-01-10T12:30:12;102955.94;;;-3.00;100.00
1736;BME280;865;53.672;10.250;2024-01-10T12:32:39;102955.28;;;-2.97;100.00
1736;BME280;865;53.672;10.250;2024-01-10T12:35:06;102958.03;;;-2.94;100.00
1736;BME280;865;53.672;10.250;2024-01-10T12:37:32;102958.50;;;-3.00;100.00
1736;BME280;865;53.672;10.250;2024-01-10T12:39:59;102961.84;;;-3.24;100.00
1736;BME280;865;53.672;10.250;2024-01-10T12:42:26;102962.72;;;-3.12;100.00
1736;BME280;865;53.672;10.250;2024-01-10T12:44:53;102957.03;;;-2.96;100.00
1736;BME280;865;53.672;10.250;2024-01-10T12:47:20;102958.03;;;-2.94;100.00
1736;BME280;865;53.672;10.250;2024-01-10T12:49:48;102953.38;;;-2.88;100.00
1736;BME280;865;53.672;10.250;2024-01-10T12:52:15;102961.78;;;-2.89;100.00
1736;BME280;865;53.672;10.250;2024-01-10T12:54:45;102959.78;;;-2.81;100.00
1736;BME280;865;53.672;10.250;2024-01-10T12:57:12;102957.31;;;-2.80;100.00
1736;BME280;865;53.672;10.250;2024-01-10T12:59:38;102967.31;;;-2.83;100.00
1736;BME280;865;53.672;10.250;2024-01-10T13:02:05;102954.09;;;-2.77;100.00
1736;BME280;865;53.672;10.250;2024-01-10T13:04:31;102957.69;;;-2.87;100.00
1736;BME280;865;53.672;10.250;2024-01-10T13:06:58;102956.38;;;-2.93;100.00
1736;BME280;865;53.672;10.250;2024-01-10T13:09:25;102961.50;;;-3.05;100.00
1736;BME280;865;53.672;10.250;2024-01-10T13:11:51;102948.94;;;-2.90;100.00
1736;BME280;865;53.672;10.250;2024-01-10T13:14:18;102954.13;;;-2.89;100.00